sensor_id;sensor_type;location;lat;lon;timestamp;P1;durP1;ratioP1;P2;durP2;ratioP2
70078;SDS011;57451;52.496;13.456;2023-08-21T00:01:48;11.93;;;7.75;;
70078;SDS011;57451;52.496;13.456;2023-08-21T00:04:15;13.13;;;7.97;;
70078;SDS011;57451;52.496;13.456;2023-08-21T00:06:42;11.27;;;8.23;;
70078;SDS011;57451;52.496;13.456;2023-08-21T00:09:10;11.73;;;7.78;;
70078;SDS011;57451;52.496;13.456;2023-08-21T00:11:39;13.02;;;8.02;;
70078;SDS011;57451;52.496;13.456;2023-08-21T00:14:06;12.50;;;8.25;;
70078;SDS011;57451;52.496;13.456;2023-08-21T00:16:34;12.98;;;8.68;;
70078;SDS011;57451;52.496;13.456;2023-08-21T00:19:02;11.20;;;7.77;;
70078;SDS011;57451;52.496;13.456;2023-08-21T00:21:29;11.23;;;8.07;;
70078;SDS011;57451;52.496;13.456;2023-08-21T00:23:56;12.77;;;8.20;;
70078;SDS011;57451;52.496;13.456;2023-08-21T00:26:24;11.50;;;8.02;;
70078;SDS011;57451;52.496;13.456;2023-08-21T00:28:53;12.45;;;8.68;;
70078;SDS011;57451;52.496;13.456;2023-08-21T00:31:20;14.30;;;8.40;;
70078;SDS011;57451;52.496;13.456;2023-08-21T00:33:54;13.18;;;8.57;;
70078;SDS011;57451;52.496;13.456;2023-08-21T00:36:27;12.07;;;8.70;;
70078;SDS011;57451;52.496;13.456;2023-08-21T00:39:17;12.15;;;8.48;;
70078;SDS011;57451;52.496;13.456;2023-08-21T00:41:47;14.60;;;8.73;;
70078;SDS011;57451;52.496;13.456;2023-08-21T00:44:16;13.23;;;8.60;;
70078;SDS011;57451;52.496;13.456;2023-08-21T00:46:47;12.75;;;8.68;;
70078;SDS011;57451;52.496;13.456;2023-08-21T00:49:29;14.00;;;8.57;;
70078;SDS011;57451;52.496;13.456;2023-08-21T00:52:02;12.48;;;8.77;;
70078;SDS011;57451;52.496;13.456;2023-08-21T00:54:30;16.27;;;9.15;;
70078;SDS011;57451;52.496;13.456;2023-08-21T00:57:00;11.70;;;8.13;;
70078;SDS011;57451;52.496;13.456;2023-08-21T00:59:30;13.80;;;8.65;;
70078;SDS011;57451;52.496;13.456;2023-08-21T01:02:06;13.27;;;9.15;;
70078;SDS011;57451;52.496;13.456;2023-08-21T01:04:34;13.65;;;8.88;;
70078;SDS011;57451;52.496;13.456;2023-08-21T01:07:13;12.63;;;8.68;;
70078;SDS011;57451;52.496;13.456;2023-08-21T01:09:43;14.50;;;9.10;;
70078;SDS011;57451;52.496;13.456;2023-08-21T01:12:19;13.18;;;8.82;;
70078;SDS011;57451;52.496;13.456;2023-08-21T01:14:53;15.10;;;8.50;;
70078;SDS011;57451;52.496;13.456;2023-08-21T01:17:25;14.18;;;9.07;;
70078;SDS011;57451;52.496;13.456;2023-08-21T01:19:53;12.70;;;9.13;;
70078;SDS011;57451;52.496;13.456;2023-08-21T01:22:25;14.63;;;8.33;;
70078;SDS011;57451;52.496;13.456;2023-08-21T01:24:54;12.45;;;8.65;;
70078;SDS011;57451;52.496;13.456;2023-08-21T01:27:22;12.65;;;8.98;;
70078;SDS011;57451;52.496;13.456;2023-08-21T01:29:49;14.13;;;8.93;;
70078;SDS011;57451;52.496;13.456;2023-08-21T01:32:20;12.60;;;8.73;;
70078;SDS011;57451;52.496;13.456;2023-08-21T01:35:02;12.90;;;9.00;;
70078;SDS011;57451;52.496;13.456;2023-08-21T01:37:32;12.15;;;8.18;;
70078;SDS011;57451;52.496;13.456;2023-08-21T01:40:01;11.70;;;8.82;;
70078;SDS011;57451;52.496;13.456;2023-08-21T01:42:29;13.73;;;8.90;;
70078;SDS011;57451;52.496;13.456;2023-08-21T01:44:57;12.43;;;8.90;;
70078;SDS011;57451;52.496;13.456;2023-08-21T01:47:24;13.40;;;8.40;;
70078;SDS011;57451;52.496;13.456;2023-08-21T01:49:52;11.73;;;8.40;;
70078;SDS011;57451;52.496;13.456;2023-08-21T01:52:19;13.77;;;8.73;;
70078;SDS011;57451;52.496;13.456;2023-08-21T01:54:47;13.15;;;9.10;;
70078;SDS011;57451;52.496;13.456;2023-08-21T01:57:18;12.95;;;8.85;;
70078;SDS011;57451;52.496;13.456;2023-08-21T01:59:46;11.90;;;8.50;;
70078;SDS011;57451;52.496;13.456;2023-08-21T02:02:28;13.02;;;9.15;;
70078;SDS011;57451;52.496;13.456;2023-08-21T02:04:59;11.20;;;9.10;;
70078;SDS011;57451;52.496;13.456;2023-08-21T02:07:26;11.93;;;8.48;;
70078;SDS011;57451;52.496;13.456;2023-08-21T02:09:53;13.20;;;9.13;;
70078;SDS011;57451;52.496;13.456;2023-08-21T02:12:22;13.17;;;8.87;;
70078;SDS011;57451;52.496;13.456;2023-08-21T02:14:50;12.75;;;8.90;;
70078;SDS011;57451;52.496;13.456;2023-08-21T02:17:17;12.23;;;8.70;;
70078;SDS011;57451;52.496;13.456;2023-08-21T02:19:44;13.02;;;8.38;;
70078;SDS011;57451;52.496;13.456;2023-08-21T02:22:13;11.82;;;8.60;;
70078;SDS011;57451;52.496;13.456;2023-08-21T02:24:43;13.03;;;8.83;;
70078;SDS011;57451;52.496;13.456;2023-08-21T02:27:11;13.75;;;8.88;;
70078;SDS011;57451;52.496;13.456;2023-08-21T02:29:40;12.75;;;8.68;;
70078;SDS011;57451;52.496;13.456;2023-08-21T02:32:07;14.27;;;8.63;;
70078;SDS011;57451;52.496;13.456;2023-08-21T02:34:35;11.25;;;8.65;;
70078;SDS011;57451;52.496;13.456;2023-08-21T02:37:02;13.60;;;8.83;;
70078;SDS011;57451;52.496;13.456;2023-08-21T02:39:31;12.35;;;8.32;;
70078;SDS011;57451;52.496;13.456;2023-08-21T02:41:59;12.88;;;8.88;;
70078;SDS011;57451;52.496;13.456;2023-08-21T02:44:26;14.13;;;9.68;;
70078;SDS011;57451;52.496;13.456;2023-08-21T02:46:55;14.05;;;9.68;;
70078;SDS011;57451;52.496;13.456;2023-08-21T02:49:23;12.93;;;8.43;;
70078;SDS011;57451;52.496;13.456;2023-08-21T02:51:50;13.95;;;9.38;;
70078;SDS011;57451;52.496;13.456;2023-08-21T02:54:18;16.55;;;9.85;;
70078;SDS011;57451;52.496;13.456;2023-08-21T02:56:45;14.15;;;9.00;;
70078;SDS011;57451;52.496;13.456;2023-08-21T02:59:13;12.02;;;9.48;;
70078;SDS011;57451;52.496;13.456;2023-08-21T03:01:40;12.27;;;8.70;;
70078;SDS011;57451;52.496;13.456;2023-08-21T03:04:09;13.15;;;8.88;;
70078;SDS011;57451;52.496;13.456;2023-08-21T03:06:36;11.70;;;8.65;;
70078;SDS011;57451;52.496;13.456;2023-08-21T03:09:04;14.77;;;9.30;;
70078;SDS011;57451;52.496;13.456;2023-08-21T03:11:31;11.85;;;8.95;;
70078;SDS011;57451;52.496;13.456;2023-08-21T03:13:59;14.37;;;9.10;;
70078;SDS011;57451;52.496;13.456;2023-08-21T03:16:26;12.90;;;8.88;;
70078;SDS011;57451;52.496;13.456;2023-08-21T03:18:54;12.25;;;8.63;;
70078;SDS011;57451;52.496;13.456;2023-08-21T03:21:26;12.65;;;8.82;;
70078;SDS011;57451;52.496;13.456;2023-08-21T03:23:55;13.63;;;8.70;;
70078;SDS011;57451;52.496;13.456;2023-08-21T03:26:24;12.03;;;8.57;;
70078;SDS011;57451;52.496;13.456;2023-08-21T03:28:53;12.70;;;9.23;;
70078;SDS011;57451;52.496;13.456;2023-08-21T03:31:21;13.70;;;8.73;;
70078;SDS011;57451;52.496;13.456;2023-08-21T03:33:48;11.98;;;8.25;;
70078;SDS011;57451;52.496;13.456;2023-08-21T03:36:18;14.57;;;8.65;;
70078;SDS011;57451;52.496;13.456;2023-08-21T03:38:48;12.73;;;8.53;;
70078;SDS011;57451;52.496;13.456;2023-08-21T03:41:16;11.90;;;8.57;;
70078;SDS011;57451;52.496;13.456;2023-08-21T03:43:43;13.38;;;9.02;;
70078;SDS011;57451;52.496;13.456;2023-08-21T03:46:10;12.88;;;8.57;;
70078;SDS011;57451;52.496;13.456;2023-08-21T03:48:38;10.73;;;8.18;;
70078;SDS011;57451;52.496;13.456;2023-08-21T03:51:05;11.57;;;8.23;;
70078;SDS011;57451;52.496;13.456;2023-08-21T03:53:34;11.63;;;8.25;;
70078;SDS011;57451;52.496;13.456;2023-08-21T03:56:03;12.38;;;8.40;;
70078;SDS011;57451;52.496;13.456;2023-08-21T03:58:32;11.85;;;8.35;;
70078;SDS011;57451;52.496;13.456;2023-08-21T04:00:59;12.15;;;8.23;;
70078;SDS011;57451;52.496;13.456;2023-08-21T04:03:27;13.83;;;8.50;;
70078;SDS011;57451;52.496;13.456;2023-08-21T04:05:54;12.93;;;8.68;;
70078;SDS011;57451;52.496;13.456;2023-08-21T04:08:23;14.80;;;8.52;;
70078;SDS011;57451;52.496;13.456;2023-08-21T04:10:50;15.00;;;8.63;;
70078;SDS011;57451;52.496;13.456;2023-08-21T04:13:29;12.50;;;8.63;;
70078;SDS011;57451;52.496;13.456;2023-08-21T04:15:56;11.93;;;8.10;;
70078;SDS011;57451;52.496;13.456;2023-08-21T04:18:24;11.23;;;8.05;;
70078;SDS011;57451;52.496;13.456;2023-08-21T04:21:06;12.00;;;8.05;;
70078;SDS011;57451;52.496;13.456;2023-08-21T04:23:35;12.35;;;8.02;;
70078;SDS011;57451;52.496;13.456;2023-08-21T04:26:03;13.45;;;8.38;;
70078;SDS011;57451;52.496;13.456;2023-08-21T04:28:33;13.13;;;8.37;;
70078;SDS011;57451;52.496;13.456;2023-08-21T04:31:04;13.38;;;8.02;;
70078;SDS011;57451;52.496;13.456;2023-08-21T04:33:32;12.80;;;8.43;;
70078;SDS011;57451;52.496;13.456;2023-08-21T04:36:00;12.05;;;8.43;;
70078;SDS011;57451;52.496;13.456;2023-08-21T04:38:28;12.13;;;8.40;;
70078;SDS011;57451;52.496;13.456;2023-08-21T04:40:56;13.37;;;8.53;;
70078;SDS011;57451;52.496;13.456;2023-08-21T04:43:33;13.00;;;8.65;;
70078;SDS011;57451;52.496;13.456;2023-08-21T04:46:03;13.90;;;8.85;;
70078;SDS011;57451;52.496;13.456;2023-08-21T04:48:34;12.95;;;8.20;;
70078;SDS011;57451;52.496;13.456;2023-08-21T04:51:02;12.73;;;8.65;;
70078;SDS011;57451;52.496;13.456;2023-08-21T04:53:30;11.57;;;7.50;;
70078;SDS011;57451;52.496;13.456;2023-08-21T04:55:58;12.90;;;8.52;;
70078;SDS011;57451;52.496;13.456;2023-08-21T04:58:28;13.75;;;8.50;;
70078;SDS011;57451;52.496;13.456;2023-08-21T05:00:58;18.00;;;8.38;;
70078;SDS011;57451;52.496;13.456;2023-08-21T05:03:27;10.50;;;7.43;;
70078;SDS011;57451;52.496;13.456;2023-08-21T05:05:55;12.37;;;7.80;;
70078;SDS011;57451;52.496;13.456;2023-08-21T05:08:24;11.68;;;7.68;;
70078;SDS011;57451;52.496;13.456;2023-08-21T05:10:55;11.60;;;7.72;;
70078;SDS011;57451;52.496;13.456;2023-08-21T05:13:24;11.73;;;7.85;;
70078;SDS011;57451;52.496;13.456;2023-08-21T05:15:53;11.90;;;7.97;;
70078;SDS011;57451;52.496;13.456;2023-08-21T05:18:24;12.57;;;8.37;;
70078;SDS011;57451;52.496;13.456;2023-08-21T05:20:53;13.05;;;8.77;;
70078;SDS011;57451;52.496;13.456;2023-08-21T05:23:21;10.70;;;8.13;;
70078;SDS011;57451;52.496;13.456;2023-08-21T05:25:52;13.40;;;8.40;;
70078;SDS011;57451;52.496;13.456;2023-08-21T05:28:20;10.40;;;7.68;;
70078;SDS011;57451;52.496;13.456;2023-08-21T05:30:47;10.53;;;7.87;;
70078;SDS011;57451;52.496;13.456;2023-08-21T05:33:19;12.18;;;8.40;;
70078;SDS011;57451;52.496;13.456;2023-08-21T05:35:51;11.65;;;8.00;;
70078;SDS011;57451;52.496;13.456;2023-08-21T05:38:19;11.38;;;8.43;;
70078;SDS011;57451;52.496;13.456;2023-08-21T05:40:47;12.57;;;8.25;;
70078;SDS011;57451;52.496;13.456;2023-08-21T05:43:16;12.77;;;7.97;;
70078;SDS011;57451;52.496;13.456;2023-08-21T05:45:43;13.38;;;8.68;;
70078;SDS011;57451;52.496;13.456;2023-08-21T05:48:12;12.25;;;7.93;;
70078;SDS011;57451;52.496;13.456;2023-08-21T05:50:39;12.10;;;8.32;;
70078;SDS011;57451;52.496;13.456;2023-08-21T05:53:08;12.32;;;7.63;;
70078;SDS011;57451;52.496;13.456;2023-08-21T05:55:36;10.67;;;8.07;;
70078;SDS011;57451;52.496;13.456;2023-08-21T05:58:04;12.43;;;8.07;;
70078;SDS011;57451;52.496;13.456;2023-08-21T06:00:32;11.15;;;8.70;;
70078;SDS011;57451;52.496;13.456;2023-08-21T06:03:01;12.60;;;8.90;;
70078;SDS011;57451;52.496;13.456;2023-08-21T06:05:48;15.20;;;9.35;;
70078;SDS011;57451;52.496;13.456;2023-08-21T06:08:16;14.00;;;9.20;;
70078;SDS011;57451;52.496;13.456;2023-08-21T06:10:45;12.48;;;8.82;;
70078;SDS011;57451;52.496;13.456;2023-08-21T06:13:17;13.35;;;9.30;;
70078;SDS011;57451;52.496;13.456;2023-08-21T06:15:47;13.13;;;8.50;;
70078;SDS011;57451;52.496;13.456;2023-08-21T06:18:15;11.32;;;8.48;;
70078;SDS011;57451;52.496;13.456;2023-08-21T06:20:42;12.77;;;8.47;;
70078;SDS011;57451;52.496;13.456;2023-08-21T06:23:13;14.85;;;7.95;;
70078;SDS011;57451;52.496;13.456;2023-08-21T06:25:42;13.13;;;8.45;;
70078;SDS011;57451;52.496;13.456;2023-08-21T06:28:11;11.93;;;7.93;;
70078;SDS011;57451;52.496;13.456;2023-08-21T06:30:38;12.63;;;7.68;;
70078;SDS011;57451;52.496;13.456;2023-08-21T06:33:06;13.60;;;7.87;;
70078;SDS011;57451;52.496;13.456;2023-08-21T06:35:35;10.75;;;7.00;;
70078;SDS011;57451;52.496;13.456;2023-08-21T06:38:03;13.80;;;7.70;;
70078;SDS011;57451;52.496;13.456;2023-08-21T06:40:32;12.10;;;8.25;;
70078;SDS011;57451;52.496;13.456;2023-08-21T06:43:01;11.25;;;7.38;;
70078;SDS011;57451;52.496;13.456;2023-08-21T06:45:33;12.47;;;7.57;;
70078;SDS011;57451;52.496;13.456;2023-08-21T06:48:03;11.05;;;7.10;;
70078;SDS011;57451;52.496;13.456;2023-08-21T06:50:30;11.50;;;7.00;;
70078;SDS011;57451;52.496;13.456;2023-08-21T06:52:58;11.35;;;7.78;;
70078;SDS011;57451;52.496;13.456;2023-08-21T06:55:26;13.52;;;8.27;;
70078;SDS011;57451;52.496;13.456;2023-08-21T06:57:53;11.83;;;7.27;;
70078;SDS011;57451;52.496;13.456;2023-08-21T07:00:22;11.75;;;7.70;;
70078;SDS011;57451;52.496;13.456;2023-08-21T07:02:50;10.35;;;7.53;;
70078;SDS011;57451;52.496;13.456;2023-08-21T07:05:17;10.82;;;7.90;;
70078;SDS011;57451;52.496;13.456;2023-08-21T07:07:45;9.18;;;7.15;;
70078;SDS011;57451;52.496;13.456;2023-08-21T07:10:12;9.87;;;6.87;;
70078;SDS011;57451;52.496;13.456;2023-08-21T07:12:40;12.55;;;7.32;;
70078;SDS011;57451;52.496;13.456;2023-08-21T07:15:08;12.55;;;7.88;;
70078;SDS011;57451;52.496;13.456;2023-08-21T07:17:38;9.98;;;6.47;;
70078;SDS011;57451;52.496;13.456;2023-08-21T07:20:06;9.05;;;6.60;;
70078;SDS011;57451;52.496;13.456;2023-08-21T07:22:34;10.67;;;7.27;;
70078;SDS011;57451;52.496;13.456;2023-08-21T07:25:02;11.32;;;6.65;;
70078;SDS011;57451;52.496;13.456;2023-08-21T07:27:31;10.63;;;7.10;;
70078;SDS011;57451;52.496;13.456;2023-08-21T07:29:59;10.77;;;7.00;;
70078;SDS011;57451;52.496;13.456;2023-08-21T07:32:26;10.70;;;6.40;;
70078;SDS011;57451;52.496;13.456;2023-08-21T07:34:55;9.40;;;6.10;;
70078;SDS011;57451;52.496;13.456;2023-08-21T07:37:23;9.48;;;5.97;;
70078;SDS011;57451;52.496;13.456;2023-08-21T07:39:50;9.18;;;5.53;;
70078;SDS011;57451;52.496;13.456;2023-08-21T07:42:19;10.27;;;5.57;;
70078;SDS011;57451;52.496;13.456;2023-08-21T07:44:46;8.95;;;5.82;;
70078;SDS011;57451;52.496;13.456;2023-08-21T07:47:28;8.53;;;5.73;;
70078;SDS011;57451;52.496;13.456;2023-08-21T07:55:06;7.93;;;4.28;;
70078;SDS011;57451;52.496;13.456;2023-08-21T07:57:34;8.18;;;3.95;;
70078;SDS011;57451;52.496;13.456;2023-08-21T08:11:46;9.32;;;4.47;;
70078;SDS011;57451;52.496;13.456;2023-08-21T08:14:14;8.10;;;4.47;;
70078;SDS011;57451;52.496;13.456;2023-08-21T08:16:41;5.80;;;3.90;;
70078;SDS011;57451;52.496;13.456;2023-08-21T08:19:08;10.40;;;3.85;;
70078;SDS011;57451;52.496;13.456;2023-08-21T08:21:35;7.20;;;3.47;;
70078;SDS011;57451;52.496;13.456;2023-08-21T08:24:03;7.97;;;3.35;;
70078;SDS011;57451;52.496;13.456;2023-08-21T08:26:31;6.63;;;3.50;;
70078;SDS011;57451;52.496;13.456;2023-08-21T08:29:00;5.90;;;2.93;;
70078;SDS011;57451;52.496;13.456;2023-08-21T08:31:27;5.50;;;3.10;;
70078;SDS011;57451;52.496;13.456;2023-08-21T08:33:54;6.88;;;3.22;;
70078;SDS011;57451;52.496;13.456;2023-08-21T08:36:22;5.30;;;3.20;;
70078;SDS011;57451;52.496;13.456;2023-08-21T08:38:49;9.68;;;3.72;;
70078;SDS011;57451;52.496;13.456;2023-08-21T08:41:19;7.30;;;3.30;;
70078;SDS011;57451;52.496;13.456;2023-08-21T08:43:55;5.72;;;3.30;;
70078;SDS011;57451;52.496;13.456;2023-08-21T08:46:25;7.53;;;3.30;;
70078;SDS011;57451;52.496;13.456;2023-08-21T08:48:56;6.05;;;3.13;;
70078;SDS011;57451;52.496;13.456;2023-08-21T08:51:24;6.50;;;2.88;;
70078;SDS011;57451;52.496;13.456;2023-08-21T08:53:54;7.63;;;3.73;;
70078;SDS011;57451;52.496;13.456;2023-08-21T08:56:22;6.47;;;3.75;;
70078;SDS011;57451;52.496;13.456;2023-08-21T08:58:49;8.88;;;3.95;;
70078;SDS011;57451;52.496;13.456;2023-08-21T09:01:18;6.30;;;2.95;;
70078;SDS011;57451;52.496;13.456;2023-08-21T09:03:46;6.63;;;2.97;;
70078;SDS011;57451;52.496;13.456;2023-08-21T09:06:17;6.87;;;2.57;;
70078;SDS011;57451;52.496;13.456;2023-08-21T09:08:52;4.78;;;2.30;;
70078;SDS011;57451;52.496;13.456;2023-08-21T09:11:20;8.45;;;2.20;;
70078;SDS011;57451;52.496;13.456;2023-08-21T09:13:48;4.43;;;1.80;;
70078;SDS011;57451;52.496;13.456;2023-08-21T09:16:17;8.32;;;2.00;;
70078;SDS011;57451;52.496;13.456;2023-08-21T09:18:49;6.33;;;2.00;;
70078;SDS011;57451;52.496;13.456;2023-08-21T09:21:18;5.00;;;1.75;;
70078;SDS011;57451;52.496;13.456;2023-08-21T09:23:46;5.70;;;1.80;;
70078;SDS011;57451;52.496;13.456;2023-08-21T09:26:18;4.80;;;1.73;;
70078;SDS011;57451;52.496;13.456;2023-08-21T09:28:47;5.25;;;1.55;;
70078;SDS011;57451;52.496;13.456;2023-08-21T09:31:15;4.43;;;1.40;;
70078;SDS011;57451;52.496;13.456;2023-08-21T09:33:43;3.47;;;1.20;;
70078;SDS011;57451;52.496;13.456;2023-08-21T09:36:22;3.80;;;1.45;;
70078;SDS011;57451;52.496;13.456;2023-08-21T09:38:51;4.05;;;1.40;;
70078;SDS011;57451;52.496;13.456;2023-08-21T09:41:19;3.40;;;1.30;;
70078;SDS011;57451;52.496;13.456;2023-08-21T09:43:47;3.73;;;1.33;;
70078;SDS011;57451;52.496;13.456;2023-08-21T09:46:15;7.93;;;1.70;;
70078;SDS011;57451;52.496;13.456;2023-08-21T09:48:43;5.38;;;1.70;;
70078;SDS011;57451;52.496;13.456;2023-08-21T09:51:12;4.28;;;1.52;;
70078;SDS011;57451;52.496;13.456;2023-08-21T09:53:41;4.72;;;1.50;;
70078;SDS011;57451;52.496;13.456;2023-08-21T09:56:08;4.20;;;1.50;;
70078;SDS011;57451;52.496;13.456;2023-08-21T09:58:36;5.40;;;1.63;;
70078;SDS011;57451;52.496;13.456;2023-08-21T10:01:05;3.60;;;1.50;;
70078;SDS011;57451;52.496;13.456;2023-08-21T10:03:38;5.38;;;1.67;;
70078;SDS011;57451;52.496;13.456;2023-08-21T10:06:08;4.90;;;1.80;;
70078;SDS011;57451;52.496;13.456;2023-08-21T10:08:36;3.37;;;1.53;;
70078;SDS011;57451;52.496;13.456;2023-08-21T10:11:08;5.55;;;1.90;;
70078;SDS011;57451;52.496;13.456;2023-08-21T10:13:37;5.22;;;1.60;;
70078;SDS011;57451;52.496;13.456;2023-08-21T10:16:05;4.82;;;1.80;;
70078;SDS011;57451;52.496;13.456;2023-08-21T10:18:36;4.95;;;1.65;;
70078;SDS011;57451;52.496;13.456;2023-08-21T10:21:10;5.40;;;1.63;;
70078;SDS011;57451;52.496;13.456;2023-08-21T10:23:39;4.88;;;1.50;;
70078;SDS011;57451;52.496;13.456;2023-08-21T10:26:13;4.30;;;1.60;;
70078;SDS011;57451;52.496;13.456;2023-08-21T10:28:42;3.80;;;1.70;;
70078;SDS011;57451;52.496;13.456;2023-08-21T10:31:30;5.13;;;1.65;;
70078;SDS011;57451;52.496;13.456;2023-08-21T10:33:59;3.67;;;1.60;;
70078;SDS011;57451;52.496;13.456;2023-08-21T10:36:38;4.47;;;1.52;;
70078;SDS011;57451;52.496;13.456;2023-08-21T10:39:13;4.22;;;1.70;;
70078;SDS011;57451;52.496;13.456;2023-08-21T10:41:43;3.95;;;1.88;;
70078;SDS011;57451;52.496;13.456;2023-08-21T10:44:33;4.88;;;1.85;;
70078;SDS011;57451;52.496;13.456;2023-08-21T10:47:14;5.70;;;1.80;;
70078;SDS011;57451;52.496;13.456;2023-08-21T10:49:44;4.32;;;1.80;;
70078;SDS011;57451;52.496;13.456;2023-08-21T10:52:12;3.40;;;1.52;;
70078;SDS011;57451;52.496;13.456;2023-08-21T10:54:44;3.35;;;1.50;;
70078;SDS011;57451;52.496;13.456;2023-08-21T10:57:14;3.78;;;1.30;;
70078;SDS011;57451;52.496;13.456;2023-08-21T10:59:51;4.67;;;1.70;;
70078;SDS011;57451;52.496;13.456;2023-08-21T11:02:20;5.32;;;1.70;;
70078;SDS011;57451;52.496;13.456;2023-08-21T11:04:48;6.00;;;1.70;;
70078;SDS011;57451;52.496;13.456;2023-08-21T11:07:15;5.50;;;1.80;;
70078;SDS011;57451;52.496;13.456;2023-08-21T11:09:43;5.80;;;1.60;;
70078;SDS011;57451;52.496;13.456;2023-08-21T11:12:12;5.93;;;1.93;;
70078;SDS011;57451;52.496;13.456;2023-08-21T11:14:42;5.00;;;1.70;;
70078;SDS011;57451;52.496;13.456;2023-08-21T11:17:10;5.20;;;1.80;;
70078;SDS011;57451;52.496;13.456;2023-08-21T11:19:38;5.05;;;1.90;;
70078;SDS011;57451;52.496;13.456;2023-08-21T11:22:06;5.03;;;1.73;;
70078;SDS011;57451;52.496;13.456;2023-08-21T11:24:38;4.90;;;1.70;;
70078;SDS011;57451;52.496;13.456;2023-08-21T11:27:07;5.28;;;1.63;;
70078;SDS011;57451;52.496;13.456;2023-08-21T11:29:38;3.65;;;1.52;;
70078;SDS011;57451;52.496;13.456;2023-08-21T11:32:09;4.75;;;1.83;;
70078;SDS011;57451;52.496;13.456;2023-08-21T11:34:38;4.20;;;1.50;;
70078;SDS011;57451;52.496;13.456;2023-08-21T11:37:08;4.27;;;1.80;;
70078;SDS011;57451;52.496;13.456;2023-08-21T11:39:39;4.38;;;1.70;;
70078;SDS011;57451;52.496;13.456;2023-08-21T11:42:10;4.38;;;1.60;;
70078;SDS011;57451;52.496;13.456;2023-08-21T11:44:41;5.93;;;2.00;;
70078;SDS011;57451;52.496;13.456;2023-08-21T11:47:09;5.13;;;1.70;;
70078;SDS011;57451;52.496;13.456;2023-08-21T11:49:37;5.07;;;1.70;;
70078;SDS011;57451;52.496;13.456;2023-08-21T11:52:05;4.43;;;1.48;;
70078;SDS011;57451;52.496;13.456;2023-08-21T11:54:33;4.20;;;1.80;;
70078;SDS011;57451;52.496;13.456;2023-08-21T11:57:05;4.60;;;1.60;;
70078;SDS011;57451;52.496;13.456;2023-08-21T11:59:34;5.05;;;1.70;;
70078;SDS011;57451;52.496;13.456;2023-08-21T12:02:09;5.63;;;2.10;;
70078;SDS011;57451;52.496;13.456;2023-08-21T12:04:40;3.95;;;1.42;;
70078;SDS011;57451;52.496;13.456;2023-08-21T12:07:10;5.32;;;1.60;;
70078;SDS011;57451;52.496;13.456;2023-08-21T12:09:38;3.45;;;1.50;;
70078;SDS011;57451;52.496;13.456;2023-08-21T12:12:06;4.55;;;1.67;;
70078;SDS011;57451;52.496;13.456;2023-08-21T12:14:34;4.33;;;1.37;;
70078;SDS011;57451;52.496;13.456;2023-08-21T12:17:06;5.30;;;1.45;;
70078;SDS011;57451;52.496;13.456;2023-08-21T12:19:35;4.78;;;1.42;;
70078;SDS011;57451;52.496;13.456;2023-08-21T12:22:03;4.13;;;1.80;;
70078;SDS011;57451;52.496;13.456;2023-08-21T12:24:31;4.45;;;1.60;;
70078;SDS011;57451;52.496;13.456;2023-08-21T12:26:58;4.03;;;1.60;;
70078;SDS011;57451;52.496;13.456;2023-08-21T12:29:26;5.05;;;1.60;;
70078;SDS011;57451;52.496;13.456;2023-08-21T12:31:53;4.88;;;2.08;;
70078;SDS011;57451;52.496;13.456;2023-08-21T12:34:21;7.25;;;2.00;;
70078;SDS011;57451;52.496;13.456;2023-08-21T12:36:50;5.43;;;1.80;;
70078;SDS011;57451;52.496;13.456;2023-08-21T12:39:18;6.13;;;1.87;;
70078;SDS011;57451;52.496;13.456;2023-08-21T12:41:46;4.82;;;1.60;;
70078;SDS011;57451;52.496;13.456;2023-08-21T12:44:13;4.88;;;1.95;;
70078;SDS011;57451;52.496;13.456;2023-08-21T12:46:41;4.72;;;1.70;;
70078;SDS011;57451;52.496;13.456;2023-08-21T12:49:09;5.10;;;1.65;;
70078;SDS011;57451;52.496;13.456;2023-08-21T12:51:36;4.00;;;2.10;;
70078;SDS011;57451;52.496;13.456;2023-08-21T12:54:05;5.15;;;1.75;;
70078;SDS011;57451;52.496;13.456;2023-08-21T12:56:32;4.38;;;2.00;;
70078;SDS011;57451;52.496;13.456;2023-08-21T12:59:00;4.45;;;1.75;;
70078;SDS011;57451;52.496;13.456;2023-08-21T13:01:27;4.75;;;1.70;;
70078;SDS011;57451;52.496;13.456;2023-08-21T13:03:55;3.57;;;1.50;;
70078;SDS011;57451;52.496;13.456;2023-08-21T13:06:23;3.63;;;1.60;;
70078;SDS011;57451;52.496;13.456;2023-08-21T13:08:50;4.25;;;1.80;;
70078;SDS011;57451;52.496;13.456;2023-08-21T13:11:18;4.95;;;1.60;;
70078;SDS011;57451;52.496;13.456;2023-08-21T13:13:46;3.60;;;1.27;;
70078;SDS011;57451;52.496;13.456;2023-08-21T13:16:13;4.57;;;1.50;;
70078;SDS011;57451;52.496;13.456;2023-08-21T13:18:41;5.28;;;1.38;;
70078;SDS011;57451;52.496;13.456;2023-08-21T13:21:08;4.10;;;1.30;;
70078;SDS011;57451;52.496;13.456;2023-08-21T13:23:36;3.60;;;1.30;;
70078;SDS011;57451;52.496;13.456;2023-08-21T13:26:03;3.88;;;1.50;;
70078;SDS011;57451;52.496;13.456;2023-08-21T13:28:32;4.90;;;1.40;;
70078;SDS011;57451;52.496;13.456;2023-08-21T13:31:00;5.60;;;1.80;;
70078;SDS011;57451;52.496;13.456;2023-08-21T13:33:28;5.75;;;1.60;;
70078;SDS011;57451;52.496;13.456;2023-08-21T13:35:58;5.40;;;1.63;;
70078;SDS011;57451;52.496;13.456;2023-08-21T13:38:25;4.25;;;1.50;;
70078;SDS011;57451;52.496;13.456;2023-08-21T13:40:53;3.40;;;1.40;;
70078;SDS011;57451;52.496;13.456;2023-08-21T13:43:21;4.15;;;1.50;;
70078;SDS011;57451;52.496;13.456;2023-08-21T13:45:56;3.63;;;1.50;;
70078;SDS011;57451;52.496;13.456;2023-08-21T13:48:23;4.25;;;1.77;;
70078;SDS011;57451;52.496;13.456;2023-08-21T13:50:51;4.25;;;1.70;;
70078;SDS011;57451;52.496;13.456;2023-08-21T13:53:18;3.97;;;1.60;;
70078;SDS011;57451;52.496;13.456;2023-08-21T13:55:45;4.10;;;1.88;;
70078;SDS011;57451;52.496;13.456;2023-08-21T13:58:13;5.63;;;1.90;;
70078;SDS011;57451;52.496;13.456;2023-08-21T14:00:40;3.90;;;1.70;;
70078;SDS011;57451;52.496;13.456;2023-08-21T14:03:09;5.47;;;1.90;;
70078;SDS011;57451;52.496;13.456;2023-08-21T14:05:36;4.77;;;1.57;;
70078;SDS011;57451;52.496;13.456;2023-08-21T14:08:04;3.35;;;1.48;;
70078;SDS011;57451;52.496;13.456;2023-08-21T14:10:31;3.80;;;1.75;;
70078;SDS011;57451;52.496;13.456;2023-08-21T14:12:59;4.05;;;1.90;;
70078;SDS011;57451;52.496;13.456;2023-08-21T14:15:26;4.07;;;1.60;;
70078;SDS011;57451;52.496;13.456;2023-08-21T14:17:54;3.00;;;1.27;;
70078;SDS011;57451;52.496;13.456;2023-08-21T14:20:24;4.60;;;1.77;;
70078;SDS011;57451;52.496;13.456;2023-08-21T14:22:51;3.83;;;1.60;;
70078;SDS011;57451;52.496;13.456;2023-08-21T14:25:18;7.13;;;1.90;;
70078;SDS011;57451;52.496;13.456;2023-08-21T14:27:46;5.72;;;1.80;;
70078;SDS011;57451;52.496;13.456;2023-08-21T14:30:14;6.40;;;1.90;;
70078;SDS011;57451;52.496;13.456;2023-08-21T14:32:41;4.85;;;1.83;;
70078;SDS011;57451;52.496;13.456;2023-08-21T14:35:09;3.67;;;1.80;;
70078;SDS011;57451;52.496;13.456;2023-08-21T14:37:38;3.72;;;1.80;;
70078;SDS011;57451;52.496;13.456;2023-08-21T14:40:06;4.30;;;1.90;;
70078;SDS011;57451;52.496;13.456;2023-08-21T14:42:35;4.30;;;1.70;;
70078;SDS011;57451;52.496;13.456;2023-08-21T14:45:04;4.45;;;1.90;;
70078;SDS011;57451;52.496;13.456;2023-08-21T14:47:32;3.20;;;1.50;;
70078;SDS011;57451;52.496;13.456;2023-08-21T14:50:00;5.15;;;1.60;;
70078;SDS011;57451;52.496;13.456;2023-08-21T14:52:27;3.58;;;1.60;;
70078;SDS011;57451;52.496;13.456;2023-08-21T14:54:56;4.60;;;1.60;;
70078;SDS011;57451;52.496;13.456;2023-08-21T14:57:24;3.78;;;1.55;;